Time;durP1;ratioP1;P1;durP2;ratioP2;P2;SDS_P1;SDS_P2;PMS_P1;PMS_P2;Temp;Humidity;BMP_temperature;BMP_pressure;BME280_temperature;BME280_humidity;BME280_pressure;Samples;Min_cycle;Max_cycle;Signal;HPM_P1;HPM_P2
2021/04/17 00:01:14;;;;;;;0.40;0.40;;;5.30;99.90;;;;;;5029489;28;20228;-81
2021/04/17 00:03:40;;;;;;;1.53;1.00;;;5.20;99.90;;;;;;5046397;28;20201;-79
2021/04/17 00:06:06;;;;;;;0.67;0.67;;;5.20;99.90;;;;;;5043716;28;20968;-79
2021/04/17 00:08:32;;;;;;;0.80;0.77;;;5.20;99.90;;;;;;5042707;28;20233;-80
2021/04/17 00:10:58;;;;;;;0.57;0.57;;;5.20;99.90;;;;;;5023089;28;20234;-80
2021/04/17 00:13:24;;;;;;;1.23;0.97;;;5.20;99.90;;;;;;5027851;28;20221;-81
2021/04/17 00:15:50;;;;;;;0.60;0.53;;;5.10;99.90;;;;;;5045874;28;20689;-80
2021/04/17 00:18:16;;;;;;;3.10;0.50;;;5.10;99.90;;;;;;5026138;28;20221;-80
2021/04/17 00:20:42;;;;;;;0.57;0.50;;;5.10;99.90;;;;;;5040461;28;20891;-78
2021/04/17 00:23:08;;;;;;;0.50;0.50;;;5.10;99.90;;;;;;5009745;28;20270;-80
2021/04/17 00:25:34;;;;;;;0.83;0.73;;;5.10;99.90;;;;;;5042574;28;20583;-80
2021/04/17 00:27:59;;;;;;;12.00;0.93;;;5.00;99.90;;;;;;5044629;28;20189;-80
2021/04/17 00:30:25;;;;;;;1.10;1.00;;;5.00;99.90;;;;;;5028072;28;20229;-80
2021/04/17 00:32:51;;;;;;;0.80;0.80;;;5.00;99.90;;;;;;5042042;28;21066;-80
2021/04/17 00:35:17;;;;;;;1.13;1.00;;;4.90;99.90;;;;;;5043719;28;20229;-79
2021/04/17 00:37:43;;;;;;;1.07;0.63;;;4.90;99.90;;;;;;5045941;28;20217;-79
2021/04/17 00:40:09;;;;;;;1.13;0.70;;;4.80;99.90;;;;;;5034495;28;20971;-79
2021/04/17 00:42:36;;;;;;;1.17;1.07;;;4.80;99.90;;;;;;5010615;28;20196;-80
2021/04/17 00:45:04;;;;;;;1.43;1.00;;;4.80;99.90;;;;;;5041292;28;20757;-78
2021/04/17 00:47:29;;;;;;;0.70;0.70;;;4.80;99.90;;;;;;5043006;28;20717;-78
2021/04/17 00:49:55;;;;;;;0.77;0.73;;;4.80;99.90;;;;;;5042016;28;20217;-78
2021/04/17 00:52:21;;;;;;;0.57;0.57;;;4.80;99.90;;;;;;5026861;28;20312;-79
2021/04/17 00:54:47;;;;;;;0.93;0.87;;;4.80;99.90;;;;;;5042037;28;20983;-79
2021/04/17 00:57:12;;;;;;;0.60;0.60;;;4.70;99.90;;;;;;5009665;28;20678;-78
2021/04/17 00:59:38;;;;;;;0.90;0.90;;;4.70;99.90;;;;;;5051601;28;20348;-80
2021/04/17 01:02:04;;;;;;;4.53;0.40;;;4.70;99.90;;;;;;5010805;28;20741;-80
2021/04/17 01:04:43;;;;;;;13.13;2.50;;;4.70;99.90;;;;;;5045724;28;20221;-79
2021/04/17 01:07:19;;;;;;;0.93;0.93;;;4.70;99.90;;;;;;5043226;28;20197;-79
2021/04/17 01:09:58;;;;;;;1.13;1.07;;;4.70;99.90;;;;;;5043189;28;20194;-78
2021/04/17 01:12:29;;;;;;;1.20;1.13;;;4.70;99.90;;;;;;5050630;28;20221;-78
2021/04/17 01:14:56;;;;;;;0.60;0.60;;;4.70;99.90;;;;;;5038731;28;20217;-79
2021/04/17 01:17:22;;;;;;;25.37;1.10;;;4.70;99.90;;;;;;5043119;28;20528;-79
2021/04/17 01:20:03;;;;;;;0.73;0.73;;;4.70;99.90;;;;;;5023394;28;20237;-80
2021/04/17 01:22:31;;;;;;;6.80;0.90;;;4.70;99.90;;;;;;5046882;28;20251;-80
2021/04/17 01:25:16;;;;;;;0.47;0.47;;;4.70;99.90;;;;;;5048312;28;20181;-80
2021/04/17 01:27:42;;;;;;;1.83;0.67;;;4.80;99.90;;;;;;5047415;28;20216;-78
2021/04/17 01:30:18;;;;;;;0.60;0.60;;;4.70;99.90;;;;;;5026287;28;21221;-79
2021/04/17 01:32:45;;;;;;;0.23;0.23;;;4.70;99.90;;;;;;5045311;28;20212;-78
2021/04/17 01:35:15;;;;;;;0.60;0.60;;;4.60;99.90;;;;;;5044889;28;20209;-77
2021/04/17 01:37:53;;;;;;;0.40;0.40;;;4.70;99.90;;;;;;5044856;28;20229;-78
2021/04/17 01:40:21;;;;;;;2.13;0.90;;;4.70;99.90;;;;;;5046078;28;20224;-78
2021/04/17 01:42:47;;;;;;;0.37;0.37;;;4.70;99.90;;;;;;5049651;28;20244;-78
2021/04/17 01:45:17;;;;;;;0.93;0.93;;;4.70;99.90;;;;;;5046675;28;20460;-79
2021/04/17 01:47:44;;;;;;;0.50;0.50;;;4.70;99.90;;;;;;5046039;28;20614;-78
2021/04/17 01:50:11;;;;;;;0.27;0.27;;;4.70;99.90;;;;;;5044086;28;20247;-80
2021/04/17 01:52:38;;;;;;;0.83;0.83;;;4.60;99.90;;;;;;5044789;28;20213;-78
2021/04/17 01:55:05;;;;;;;0.40;0.40;;;4.60;99.90;;;;;;5039361;28;20375;-78
2021/04/17 01:57:31;;;;;;;0.50;0.50;;;4.70;99.90;;;;;;5047410;28;20558;-79
2021/04/17 01:59:57;;;;;;;0.47;0.47;;;4.70;99.90;;;;;;5025429;28;20224;-77
2021/04/17 02:02:23;;;;;;;0.77;0.60;;;4.70;99.90;;;;;;5027538;28;20209;-80
2021/04/17 02:04:49;;;;;;;14.83;0.97;;;4.60;99.90;;;;;;5042778;28;20606;-78
2021/04/17 02:07:15;;;;;;;1.33;1.23;;;4.60;99.90;;;;;;5028511;28;20225;-78
2021/04/17 02:09:41;;;;;;;0.60;0.60;;;4.60;99.90;;;;;;5046608;28;20190;-78
2021/04/17 02:12:07;;;;;;;0.70;0.70;;;4.60;99.90;;;;;;5046995;28;20677;-80
2021/04/17 02:14:33;;;;;;;0.93;0.70;;;4.60;99.90;;;;;;5045018;28;20424;-79
2021/04/17 02:17:22;;;;;;;0.50;0.50;;;4.50;99.90;;;;;;5043651;28;20704;-78
2021/04/17 02:19:59;;;;;;;0.57;0.57;;;4.50;99.90;;;;;;5045555;28;20278;-78
2021/04/17 02:22:26;;;;;;;0.40;0.40;;;4.60;99.90;;;;;;5044232;28;20216;-78
2021/04/17 02:24:52;;;;;;;1.77;0.63;;;4.60;99.90;;;;;;5043826;28;20251;-79
2021/04/17 02:27:19;;;;;;;1.40;1.27;;;4.60;99.90;;;;;;5044734;28;20233;-78
2021/04/17 02:29:50;;;;;;;0.40;0.40;;;4.60;99.90;;;;;;5028822;28;20238;-78
2021/04/17 02:32:16;;;;;;;3.43;1.67;;;4.60;99.90;;;;;;5046509;28;20221;-78
2021/04/17 02:34:42;;;;;;;0.60;0.60;;;4.60;99.90;;;;;;5044585;28;20325;-79
2021/04/17 02:37:09;;;;;;;2.57;0.80;;;4.60;99.90;;;;;;5029175;28;20190;-79
2021/04/17 02:39:35;;;;;;;0.47;0.47;;;4.60;99.90;;;;;;5046458;28;20272;-78
2021/04/17 02:42:01;;;;;;;3.50;0.63;;;4.60;99.90;;;;;;5042819;28;20690;-79
2021/04/17 02:44:27;;;;;;;0.50;0.50;;;4.70;99.90;;;;;;5042563;28;20213;-79
2021/04/17 02:46:52;;;;;;;0.70;0.70;;;4.70;99.90;;;;;;5010516;28;20217;-79
2021/04/17 02:49:18;;;;;;;8.77;2.00;;;4.70;99.90;;;;;;5044507;28;20230;-80
2021/04/17 02:51:44;;;;;;;0.60;0.60;;;4.70;99.90;;;;;;5029498;28;20186;-78
2021/04/17 02:54:10;;;;;;;0.87;0.87;;;4.70;99.90;;;;;;5010119;28;20213;-79
2021/04/17 02:56:36;;;;;;;0.30;0.30;;;4.70;99.90;;;;;;5026988;28;20209;-79
2021/04/17 02:59:02;;;;;;;0.33;0.33;;;4.80;99.90;;;;;;5043388;28;21163;-77
2021/04/17 03:01:29;;;;;;;1.23;1.13;;;4.90;99.90;;;;;;5044211;28;20268;-78
2021/04/17 03:03:54;;;;;;;0.40;0.40;;;4.90;99.90;;;;;;5044403;28;20194;-79
2021/04/17 03:06:20;;;;;;;0.50;0.50;;;4.90;99.90;;;;;;5011991;28;21285;-80
2021/04/17 03:08:46;;;;;;;1.20;1.10;;;4.80;99.90;;;;;;5028656;28;20235;-79
2021/04/17 03:11:12;;;;;;;0.63;0.63;;;4.70;99.90;;;;;;5027879;28;20228;-79
2021/04/17 03:13:38;;;;;;;1.30;1.13;;;4.70;99.90;;;;;;5044933;28;20872;-79
2021/04/17 03:16:04;;;;;;;0.43;0.43;;;4.70;99.90;;;;;;5025825;28;20211;-78
2021/04/17 03:18:29;;;;;;;0.87;0.70;;;4.70;99.90;;;;;;5044633;28;20192;-78
2021/04/17 03:20:55;;;;;;;0.43;0.43;;;4.70;99.90;;;;;;5010219;28;20229;-79
2021/04/17 03:23:21;;;;;;;0.70;0.70;;;4.60;99.90;;;;;;5028667;28;20659;-78
2021/04/17 03:25:47;;;;;;;0.80;0.80;;;4.60;99.90;;;;;;5024465;28;20224;-79
2021/04/17 03:28:12;;;;;;;3.20;0.63;;;4.60;99.90;;;;;;5026920;28;20217;-80
2021/04/17 03:30:38;;;;;;;1.17;0.50;;;4.60;99.90;;;;;;5062793;28;20687;-79
2021/04/17 03:33:04;;;;;;;7.63;1.33;;;4.50;99.90;;;;;;5046092;28;21435;-81
2021/04/17 03:35:32;;;;;;;0.73;0.40;;;4.50;99.90;;;;;;5025867;28;20220;-79
2021/04/17 03:37:58;;;;;;;0.40;0.40;;;4.50;99.90;;;;;;5060943;28;20378;-80
2021/04/17 03:40:24;;;;;;;0.40;0.40;;;4.50;99.90;;;;;;5046196;28;20367;-81
2021/04/17 03:42:50;;;;;;;3.00;1.63;;;4.40;99.90;;;;;;5050035;28;20184;-77
2021/04/17 03:45:17;;;;;;;0.77;0.77;;;4.40;99.90;;;;;;5011635;28;21057;-78
2021/04/17 03:47:43;;;;;;;1.77;1.37;;;4.40;99.90;;;;;;5045752;28;20305;-79
2021/04/17 03:50:10;;;;;;;2.63;0.87;;;4.40;99.90;;;;;;5062885;28;20233;-78
2021/04/17 03:52:36;;;;;;;0.40;0.40;;;4.40;99.90;;;;;;5049023;28;20221;-78
2021/04/17 03:55:07;;;;;;;2.73;1.17;;;4.40;99.90;;;;;;5043979;28;20184;-78
2021/04/17 03:57:34;;;;;;;0.50;0.50;;;4.50;99.90;;;;;;5048815;28;21196;-79
2021/04/17 04:00:00;;;;;;;2.00;0.90;;;4.50;99.90;;;;;;5028562;28;20233;-79
2021/04/17 04:02:26;;;;;;;0.40;0.40;;;4.60;99.90;;;;;;5038281;28;20212;-78
2021/04/17 04:04:52;;;;;;;0.87;0.87;;;4.60;99.90;;;;;;5026882;28;20219;-80
2021/04/17 04:07:18;;;;;;;3.33;1.10;;;4.50;99.90;;;;;;5042972;28;20221;-78
2021/04/17 04:09:43;;;;;;;0.40;0.40;;;4.50;99.90;;;;;;5046763;28;20193;-81
2021/04/17 04:12:09;;;;;;;1.37;0.60;;;4.50;99.90;;;;;;5011337;28;20713;-80
2021/04/17 04:14:35;;;;;;;1.93;1.23;;;4.40;99.90;;;;;;5044206;28;20267;-79
2021/04/17 04:17:02;;;;;;;0.60;0.60;;;4.40;99.90;;;;;;5046393;28;20771;-79
2021/04/17 04:19:27;;;;;;;0.73;0.50;;;4.50;99.90;;;;;;5042868;28;20255;-79
2021/04/17 04:21:53;;;;;;;1.60;1.50;;;4.50;99.90;;;;;;5045666;28;20705;-80
2021/04/17 04:24:19;;;;;;;0.90;0.90;;;4.50;99.90;;;;;;5046953;28;22081;-80
2021/04/17 04:26:44;;;;;;;7.53;0.70;;;4.50;99.90;;;;;;5032336;28;20228;-80
2021/04/17 04:29:10;;;;;;;0.60;0.60;;;4.40;99.90;;;;;;5026539;28;20296;-79
2021/04/17 04:31:36;;;;;;;0.53;0.53;;;4.40;99.90;;;;;;5027608;28;20709;-79
2021/04/17 04:34:02;;;;;;;2.00;0.83;;;4.30;99.90;;;;;;5027707;28;20195;-80
2021/04/17 04:36:28;;;;;;;1.20;1.07;;;4.30;99.90;;;;;;5013927;28;20215;-79
2021/04/17 04:38:54;;;;;;;0.60;0.60;;;4.30;99.90;;;;;;5029589;28;20213;-79
2021/04/17 04:41:20;;;;;;;1.40;0.67;;;4.40;99.90;;;;;;5045331;28;20615;-79
2021/04/17 04:43:45;;;;;;;0.97;0.97;;;4.50;99.90;;;;;;5028354;28;20221;-78
2021/04/17 04:46:11;;;;;;;0.77;0.60;;;4.60;99.90;;;;;;5012651;28;20663;-80
2021/04/17 04:48:37;;;;;;;1.13;1.03;;;4.60;99.90;;;;;;5047632;28;20197;-79
2021/04/17 04:51:03;;;;;;;7.13;1.30;;;4.50;99.90;;;;;;5045016;28;20224;-79
2021/04/17 04:53:29;;;;;;;0.80;0.80;;;4.50;99.90;;;;;;5043974;28;20224;-79
2021/04/17 04:55:54;;;;;;;1.57;1.47;;;4.50;99.90;;;;;;5006966;28;20213;-79
2021/04/17 04:58:20;;;;;;;4.43;1.57;;;4.60;99.90;;;;;;5009525;28;20273;-80
2021/04/17 05:00:46;;;;;;;1.47;0.80;;;4.60;99.90;;;;;;5045913;28;20274;-78
2021/04/17 05:03:11;;;;;;;1.03;1.03;;;4.70;99.90;;;;;;5028396;28;20225;-79
2021/04/17 05:05:37;;;;;;;1.63;1.53;;;4.80;99.90;;;;;;5027180;28;20274;-79
2021/04/17 05:08:03;;;;;;;5.90;1.80;;;4.80;99.90;;;;;;5029983;28;20252;-80
2021/04/17 05:10:29;;;;;;;0.90;0.60;;;4.80;99.90;;;;;;5062923;28;20225;-79
2021/04/17 05:12:55;;;;;;;0.60;0.60;;;4.90;99.90;;;;;;5043726;28;20189;-79
2021/04/17 05:15:21;;;;;;;0.80;0.80;;;5.00;99.90;;;;;;5064586;28;20527;-79
2021/04/17 05:17:47;;;;;;;0.60;0.60;;;5.20;99.90;;;;;;5045199;28;20226;-80
2021/04/17 05:20:13;;;;;;;0.80;0.80;;;5.40;99.90;;;;;;5028551;28;20233;-80
2021/04/17 05:22:38;;;;;;;0.40;0.40;;;5.70;99.90;;;;;;5028303;28;20251;-80
2021/04/17 05:25:05;;;;;;;1.77;0.90;;;6.20;99.90;;;;;;5044115;28;20700;-79
2021/04/17 05:27:31;;;;;;;0.30;0.30;;;6.80;99.90;;;;;;5063770;28;20283;-79
2021/04/17 05:29:57;;;;;;;1.13;1.03;;;7.10;99.90;;;;;;5060035;28;20240;-79
2021/04/17 05:32:23;;;;;;;0.43;0.43;;;7.40;99.90;;;;;;5011970;28;20231;-79
2021/04/17 05:34:48;;;;;;;1.57;0.77;;;7.20;99.90;;;;;;5046279;28;21008;-80
2021/04/17 05:37:14;;;;;;;0.90;0.90;;;7.70;99.90;;;;;;5045263;28;20221;-79
2021/04/17 05:39:40;;;;;;;0.90;0.80;;;8.20;99.90;;;;;;5047175;28;20304;-79
2021/04/17 05:42:06;;;;;;;3.27;0.60;;;9.00;99.90;;;;;;5043081;28;20228;-81
2021/04/17 05:44:32;;;;;;;2.60;1.23;;;9.80;99.90;;;;;;5054246;28;20224;-80
2021/04/17 05:46:58;;;;;;;2.40;0.97;;;10.40;99.90;;;;;;5024762;28;20583;-80
2021/04/17 05:49:23;;;;;;;0.60;0.60;;;10.30;99.90;;;;;;5030881;28;20689;-79
2021/04/17 05:51:49;;;;;;;3.07;1.33;;;10.90;99.90;;;;;;5043294;28;20189;-79
2021/04/17 05:54:17;;;;;;;1.90;0.83;;;11.80;99.90;;;;;;5008472;28;20224;-80
2021/04/17 05:56:44;;;;;;;7.00;1.57;;;12.20;99.90;;;;;;5026420;28;20285;-79
2021/04/17 05:59:09;;;;;;;0.80;0.70;;;11.40;99.90;;;;;;5043302;28;20227;-80
2021/04/17 06:01:35;;;;;;;1.90;1.80;;;12.20;99.90;;;;;;5031500;28;20561;-79
2021/04/17 06:04:01;;;;;;;6.60;1.43;;;12.70;99.90;;;;;;5044445;28;20189;-79
2021/04/17 06:06:27;;;;;;;4.23;1.37;;;13.10;99.90;;;;;;5031171;28;20278;-81
2021/04/17 06:08:53;;;;;;;3.60;0.97;;;13.00;99.90;;;;;;5036930;28;20216;-80
2021/04/17 06:11:18;;;;;;;4.10;0.70;;;13.60;99.90;;;;;;5036651;28;20579;-82
2021/04/17 06:13:44;;;;;;;1.73;0.80;;;14.30;99.90;;;;;;5055714;28;20631;-79
2021/04/17 06:16:10;;;;;;;1.20;0.70;;;15.10;99.90;;;;;;5054359;28;20185;-84
2021/04/17 06:18:36;;;;;;;2.63;1.50;;;14.70;99.90;;;;;;5054872;28;20173;-81
2021/04/17 06:21:04;;;;;;;5.53;1.53;;;15.40;99.90;;;;;;5054858;28;20338;-80
2021/04/17 06:23:30;;;;;;;3.37;1.40;;;16.00;99.90;;;;;;5035441;28;20231;-83
2021/04/17 06:25:56;;;;;;;12.73;1.80;;;16.30;99.90;;;;;;5056600;28;20249;-87
2021/04/17 06:28:21;;;;;;;5.43;1.27;;;15.50;99.90;;;;;;5023358;28;20724;-83
2021/04/17 06:30:47;;;;;;;5.87;1.43;;;16.30;99.90;;;;;;5040289;28;20237;-85
2021/04/17 06:33:13;;;;;;;1.90;1.20;;;17.10;99.90;;;;;;5021425;28;20225;-83
2021/04/17 06:35:39;;;;;;;1.53;0.70;;;16.70;99.90;;;;;;5022193;28;20282;-82
2021/04/17 06:38:08;;;;;;;7.87;1.37;;;15.40;99.90;;;;;;5073866;28;20661;-82
2021/04/17 06:40:34;;;;;;;3.97;1.57;;;15.30;99.90;;;;;;5071485;28;20228;-81
2021/04/17 06:43:03;;;;;;;3.07;0.70;;;14.70;99.90;;;;;;5033908;28;20685;-85
2021/04/17 06:45:30;;;;;;;1.90;1.20;;;13.40;99.90;;;;;;5054144;28;20188;-84
2021/04/17 06:47:58;;;;;;;5.93;2.03;;;14.20;99.90;;;;;;5052366;28;20221;-82
2021/04/17 06:50:25;;;;;;;1.27;1.00;;;15.10;99.90;;;;;;5066649;28;20243;-82
2021/04/17 06:52:52;;;;;;;7.80;1.40;;;14.90;99.90;;;;;;5044963;28;20813;-83
2021/04/17 06:55:18;;;;;;;4.37;1.33;;;16.40;99.90;;;;;;5035787;28;21050;-83
2021/04/17 06:57:44;;;;;;;4.47;1.50;;;17.00;99.90;;;;;;5040329;28;20197;-83
2021/04/17 07:00:12;;;;;;;5.17;1.40;;;17.10;99.90;;;;;;5037462;28;20240;-82
2021/04/17 07:02:39;;;;;;;4.43;1.47;;;17.00;99.90;;;;;;5039477;28;20209;-82
2021/04/17 07:05:06;;;;;;;1.80;1.27;;;16.10;99.90;;;;;;5052477;28;20764;-83
2021/04/17 07:07:33;;;;;;;2.53;0.87;;;16.40;99.90;;;;;;5051661;28;20220;-81
2021/04/17 07:09:59;;;;;;;8.23;1.20;;;15.10;99.90;;;;;;5053886;28;20192;-82
2021/04/17 07:12:25;;;;;;;2.17;1.60;;;14.60;99.90;;;;;;4959220;28;20218;-85
2021/04/17 07:14:53;;;;;;;9.13;1.20;;;15.10;99.90;;;;;;5054295;28;21216;-82
2021/04/17 07:17:20;;;;;;;2.20;1.03;;;15.00;99.90;;;;;;5055128;28;20215;-83
2021/04/17 07:19:47;;;;;;;4.10;0.90;;;15.50;99.90;;;;;;5052576;28;20239;-82
2021/04/17 07:22:24;;;;;;;0.83;0.77;;;15.60;99.90;;;;;;5053194;28;20181;-83
2021/04/17 07:24:54;;;;;;;6.00;1.60;;;15.70;99.90;;;;;;5072519;28;20189;-82
2021/04/17 07:27:52;;;;;;;2.03;0.93;;;15.80;99.90;;;;;;5051944;28;20229;-82
2021/04/17 07:30:17;;;;;;;3.60;1.43;;;16.20;99.90;;;;;;5050014;28;20351;-82
2021/04/17 07:33:00;;;;;;;2.80;1.63;;;15.90;99.90;;;;;;5053975;28;20227;-83
2021/04/17 07:35:33;;;;;;;2.87;0.83;;;15.20;99.90;;;;;;5052224;28;20322;-82
2021/04/17 07:38:17;;;;;;;4.47;0.83;;;16.50;99.90;;;;;;5068993;28;20263;-82
2021/04/17 07:40:45;;;;;;;2.03;1.10;;;16.40;99.90;;;;;;5068310;28;20221;-84
2021/04/17 07:43:11;;;;;;;2.97;1.17;;;16.20;99.90;;;;;;5071536;28;20180;-83
2021/04/17 07:45:39;;;;;;;1.17;0.93;;;15.70;99.90;;;;;;5053761;28;20189;-84
2021/04/17 07:48:28;;;;;;;4.23;1.80;;;15.80;99.90;;;;;;5038126;28;20295;-82
2021/04/17 07:50:55;;;;;;;2.70;1.30;;;15.90;99.90;;;;;;5052115;28;20270;-81
2021/04/17 07:53:40;;;;;;;2.90;1.03;;;15.80;99.90;;;;;;5034070;28;20620;-86
2021/04/17 07:56:30;;;;;;;1.53;0.90;;;16.60;99.90;;;;;;5050706;28;20693;-84
2021/04/17 07:59:04;;;;;;;4.43;1.30;;;14.90;99.90;;;;;;5054243;28;20264;-82
2021/04/17 08:01:32;;;;;;;5.33;1.10;;;15.40;99.90;;;;;;5053763;28;20260;-81
2021/04/17 08:03:59;;;;;;;4.23;1.20;;;16.20;99.90;;;;;;5051653;28;20196;-84
2021/04/17 08:06:27;;;;;;;2.27;0.97;;;15.70;99.90;;;;;;5034583;28;20217;-83
2021/04/17 08:08:55;;;;;;;1.30;0.90;;;15.20;99.90;;;;;;5036338;28;20229;-82
2021/04/17 08:11:24;;;;;;;3.67;0.90;;;14.80;99.90;;;;;;5047523;28;20256;-81
2021/04/17 08:13:50;;;;;;;4.43;1.10;;;15.60;99.90;;;;;;5044239;28;20791;-82
2021/04/17 08:16:18;;;;;;;2.70;1.10;;;15.90;99.90;;;;;;5040928;28;20196;-81
2021/04/17 08:18:45;;;;;;;2.10;0.70;;;16.10;99.90;;;;;;5048069;28;20184;-81
2021/04/17 08:21:18;;;;;;;6.30;1.27;;;15.50;99.90;;;;;;5045925;28;20354;-83
2021/04/17 08:23:49;;;;;;;2.03;1.10;;;15.60;99.90;;;;;;5046846;28;20646;-84
2021/04/17 08:26:16;;;;;;;2.10;0.70;;;16.30;99.90;;;;;;5030405;28;20225;-82
2021/04/17 08:28:44;;;;;;;1.23;1.13;;;16.40;99.90;;;;;;5048303;28;20764;-82
2021/04/17 08:31:28;;;;;;;4.13;1.60;;;15.50;99.90;;;;;;5045954;28;20283;-81
2021/04/17 08:34:09;;;;;;;2.90;1.60;;;15.10;99.90;;;;;;5066425;28;20242;-80
2021/04/17 08:36:41;;;;;;;2.87;1.20;;;14.80;99.90;;;;;;5044690;28;20221;-80
2021/04/17 08:39:28;;;;;;;3.33;1.33;;;14.60;99.90;;;;;;5060892;28;20213;-80
2021/04/17 08:41:53;;;;;;;2.77;0.87;;;15.20;99.90;;;;;;5062719;28;20212;-81
2021/04/17 08:44:27;;;;;;;3.43;0.97;;;15.80;99.90;;;;;;5040635;28;20222;-80
2021/04/17 08:46:54;;;;;;;2.17;1.20;;;15.60;99.90;;;;;;5042159;28;20224;-82
2021/04/17 08:49:32;;;;;;;0.70;0.60;;;15.20;99.90;;;;;;5044493;28;20216;-80
2021/04/17 08:52:10;;;;;;;2.97;0.87;;;14.80;99.90;;;;;;5043575;28;20193;-80
2021/04/17 08:54:37;;;;;;;3.07;1.33;;;14.80;99.90;;;;;;5042668;28;20283;-81
2021/04/17 08:57:17;;;;;;;4.40;0.80;;;15.20;99.90;;;;;;5045472;28;20213;-80
2021/04/17 08:59:52;;;;;;;2.87;1.03;;;14.50;99.90;;;;;;5025850;28;20303;-82
2021/04/17 09:02:19;;;;;;;1.83;1.30;;;14.90;99.90;;;;;;5031528;28;20321;-82
2021/04/17 09:05:07;;;;;;;2.97;0.83;;;14.90;99.90;;;;;;5044511;28;20216;-80
2021/04/17 09:07:35;;;;;;;4.30;1.30;;;14.90;99.90;;;;;;5061991;28;20205;-80
2021/04/17 09:10:32;;;;;;;1.27;0.80;;;15.00;99.90;;;;;;5044063;28;20185;-80
2021/04/17 09:13:10;;;;;;;5.73;1.63;;;14.70;99.90;;;;;;5029709;28;20689;-80
2021/04/17 09:15:53;;;;;;;3.10;1.03;;;15.20;99.90;;;;;;5052702;28;20231;-79
2021/04/17 09:18:34;;;;;;;2.70;1.27;;;15.10;99.90;;;;;;5026657;28;20266;-80
2021/04/17 09:21:01;;;;;;;2.73;1.83;;;14.80;99.90;;;;;;5062594;28;20256;-80
2021/04/17 09:23:42;;;;;;;1.97;0.97;;;15.30;99.90;;;;;;5028853;28;20212;-80
2021/04/17 09:26:08;;;;;;;1.03;0.63;;;15.40;99.90;;;;;;5043552;28;20220;-80
2021/04/17 09:28:39;;;;;;;3.73;1.13;;;15.00;99.90;;;;;;5042772;28;20317;-81
2021/04/17 09:31:07;;;;;;;4.70;1.47;;;14.80;99.90;;;;;;5067726;28;20316;-83
2021/04/17 09:33:33;;;;;;;1.87;1.00;;;14.70;99.90;;;;;;5052623;28;20230;-83
2021/04/17 09:35:58;;;;;;;1.03;1.03;;;14.80;99.90;;;;;;5066389;28;20908;-83
2021/04/17 09:38:32;;;;;;;2.43;1.20;;;14.60;99.90;;;;;;5018658;28;20220;-82
2021/04/17 09:40:58;;;;;;;4.13;0.80;;;14.40;99.90;;;;;;5048653;28;20614;-80
2021/04/17 09:43:28;;;;;;;4.90;0.87;;;14.00;99.90;;;;;;5051809;28;20793;-81
2021/04/17 09:45:56;;;;;;;1.83;1.13;;;14.60;99.90;;;;;;5053562;28;20184;-81
2021/04/17 09:48:23;;;;;;;3.20;0.70;;;14.90;99.90;;;;;;5068935;28;20205;-82
2021/04/17 09:50:51;;;;;;;1.67;1.10;;;14.90;99.90;;;;;;5018068;28;20228;-80
2021/04/17 09:53:23;;;;;;;6.73;2.17;;;15.20;99.90;;;;;;5031439;28;20213;-85
2021/04/17 09:55:57;;;;;;;1.80;0.90;;;15.20;99.90;;;;;;5046368;28;20599;-82
2021/04/17 09:58:39;;;;;;;2.47;1.17;;;15.10;99.90;;;;;;5066225;28;21309;-82
2021/04/17 10:01:16;;;;;;;1.40;0.90;;;14.10;99.90;;;;;;5047061;28;20228;-82
2021/04/17 10:03:51;;;;;;;2.87;1.43;;;13.30;99.90;;;;;;5048942;28;20188;-83
2021/04/17 10:06:30;;;;;;;3.30;1.10;;;14.10;99.90;;;;;;5046118;28;20453;-80
2021/04/17 10:09:06;;;;;;;0.80;0.70;;;14.50;99.90;;;;;;5048598;28;20244;-82
2021/04/17 10:11:33;;;;;;;4.10;1.03;;;15.10;99.90;;;;;;5050791;28;20216;-83
2021/04/17 10:13:59;;;;;;;2.90;0.77;;;14.80;99.90;;;;;;5035798;28;20849;-83
2021/04/17 10:16:36;;;;;;;3.67;1.33;;;14.90;99.90;;;;;;5033031;28;20212;-83
2021/04/17 10:19:04;;;;;;;1.63;0.83;;;14.60;99.90;;;;;;5052478;28;20295;-82
2021/04/17 10:21:35;;;;;;;1.67;1.53;;;13.90;99.90;;;;;;5054732;28;20627;-82
2021/04/17 10:24:19;;;;;;;0.90;0.80;;;14.50;99.90;;;;;;5069653;28;20704;-82
2021/04/17 10:27:06;;;;;;;6.50;1.40;;;14.80;99.90;;;;;;5053810;28;20229;-83
2021/04/17 10:29:43;;;;;;;2.00;0.70;;;14.80;99.90;;;;;;5053512;28;20241;-83
2021/04/17 10:32:15;;;;;;;2.30;0.83;;;13.80;99.90;;;;;;5054365;28;20270;-82
2021/04/17 10:34:46;;;;;;;3.13;0.90;;;14.70;99.90;;;;;;5053923;28;20220;-83
2021/04/17 10:37:24;;;;;;;1.53;0.83;;;14.80;99.90;;;;;;5054434;28;20224;-83
2021/04/17 10:39:58;;;;;;;2.17;1.20;;;14.80;99.90;;;;;;5052824;28;20233;-84
2021/04/17 10:42:24;;;;;;;1.73;1.20;;;14.80;99.90;;;;;;5051960;28;20220;-83
2021/04/17 10:44:54;;;;;;;4.00;0.80;;;14.80;99.90;;;;;;5051240;28;20229;-84
2021/04/17 10:47:21;;;;;;;3.40;1.47;;;14.70;99.90;;;;;;5069137;28;20282;-83
2021/04/17 10:49:47;;;;;;;2.10;0.83;;;14.40;99.90;;;;;;5070990;28;20221;-82
2021/04/17 10:52:32;;;;;;;2.93;1.17;;;14.30;99.90;;;;;;5036472;28;20242;-83
2021/04/17 10:54:58;;;;;;;2.97;0.93;;;14.00;99.90;;;;;;5067542;28;20181;-82
2021/04/17 10:57:24;;;;;;;1.67;0.90;;;14.60;99.90;;;;;;5037521;28;20193;-82
2021/04/17 10:59:52;;;;;;;2.70;1.57;;;14.60;99.90;;;;;;5070620;28;20686;-85
2021/04/17 11:02:23;;;;;;;1.70;1.03;;;14.70;99.90;;;;;;5053554;28;20209;-84
2021/04/17 11:04:49;;;;;;;5.30;0.90;;;14.00;99.90;;;;;;5070409;28;20248;-81
2021/04/17 11:07:15;;;;;;;2.33;0.90;;;13.70;99.90;;;;;;5034901;28;20284;-81
2021/04/17 11:09:48;;;;;;;2.00;1.17;;;14.00;99.90;;;;;;5023026;28;20921;-84
2021/04/17 11:12:30;;;;;;;2.60;1.70;;;14.10;99.90;;;;;;5036181;28;20225;-83
2021/04/17 11:15:20;;;;;;;1.27;0.90;;;13.70;99.90;;;;;;5053935;28;20313;-83
2021/04/17 11:18:12;;;;;;;2.10;1.13;;;12.80;99.90;;;;;;5032858;28;20217;-84
2021/04/17 11:20:55;;;;;;;3.23;1.27;;;12.70;99.90;;;;;;5053348;28;20228;-82
2021/04/17 11:23:42;;;;;;;2.73;1.10;;;12.80;99.90;;;;;;5067046;28;20212;-83
2021/04/17 11:26:10;;;;;;;3.33;1.10;;;12.50;99.90;;;;;;5050828;28;20216;-82
2021/04/17 11:28:39;;;;;;;1.63;0.90;;;12.90;99.90;;;;;;5053840;28;20217;-83
2021/04/17 11:31:05;;;;;;;3.80;1.10;;;13.00;99.90;;;;;;5035729;28;20236;-84
2021/04/17 11:33:31;;;;;;;1.27;1.17;;;12.80;99.90;;;;;;5056727;28;20189;-82
2021/04/17 11:35:57;;;;;;;2.07;1.30;;;12.80;99.90;;;;;;5036132;28;20757;-82
2021/04/17 11:38:22;;;;;;;4.27;1.13;;;12.70;99.90;;;;;;5052578;28;20344;-84
2021/04/17 11:40:48;;;;;;;2.03;1.33;;;12.80;99.90;;;;;;5053460;28;20229;-80
2021/04/17 11:43:14;;;;;;;6.10;1.33;;;12.70;99.90;;;;;;5035638;28;20187;-81
2021/04/17 11:45:40;;;;;;;3.10;1.20;;;12.70;99.90;;;;;;5073935;28;20188;-82
2021/04/17 11:48:06;;;;;;;1.50;1.23;;;12.80;99.90;;;;;;5049772;28;20217;-82
2021/04/17 11:50:33;;;;;;;0.83;0.77;;;12.40;99.90;;;;;;5036337;28;20216;-83
2021/04/17 11:52:59;;;;;;;1.63;0.83;;;12.40;99.90;;;;;;5070323;28;20220;-83
2021/04/17 11:55:26;;;;;;;2.87;1.17;;;12.50;99.90;;;;;;5050328;28;20213;-81
2021/04/17 11:57:52;;;;;;;0.90;0.90;;;12.20;99.90;;;;;;5071718;28;20194;-85
2021/04/17 12:00:18;;;;;;;3.70;2.23;;;11.90;99.90;;;;;;5037432;28;20233;-86
2021/04/17 12:02:44;;;;;;;1.97;1.20;;;11.90;99.90;;;;;;5054849;28;20319;-86
2021/04/17 12:05:10;;;;;;;3.83;1.03;;;12.10;99.90;;;;;;5071270;28;20323;-87
2021/04/17 12:07:36;;;;;;;2.27;0.90;;;12.10;99.90;;;;;;5051813;28;20216;-86
2021/04/17 12:10:04;;;;;;;1.43;1.33;;;11.90;99.90;;;;;;5039016;28;20230;-86
2021/04/17 12:12:29;;;;;;;1.93;1.40;;;12.10;99.90;;;;;;5054519;28;21132;-86
2021/04/17 12:14:55;;;;;;;1.40;0.93;;;11.70;99.90;;;;;;5035833;28;20275;-84
2021/04/17 12:17:21;;;;;;;3.67;1.10;;;11.70;99.90;;;;;;5033771;28;20294;-84
2021/04/17 12:19:47;;;;;;;1.70;1.17;;;11.80;99.90;;;;;;5069937;28;20229;-81
2021/04/17 12:22:12;;;;;;;2.80;0.80;;;11.80;99.90;;;;;;5067859;28;20552;-82
2021/04/17 12:24:38;;;;;;;1.43;1.30;;;11.60;99.90;;;;;;5034904;28;20553;-82
2021/04/17 12:27:05;;;;;;;3.47;1.07;;;11.50;99.90;;;;;;5035567;28;20241;-83
2021/04/17 12:29:31;;;;;;;1.60;1.50;;;11.70;99.90;;;;;;5051393;28;20328;-83
2021/04/17 12:31:58;;;;;;;3.23;1.30;;;11.70;99.90;;;;;;5051181;28;20262;-81
2021/04/17 12:34:24;;;;;;;1.13;1.00;;;11.60;99.90;;;;;;5052541;28;20224;-80
2021/04/17 12:36:50;;;;;;;1.93;1.53;;;11.50;99.90;;;;;;5039038;28;20554;-83
2021/04/17 12:39:16;;;;;;;1.17;1.07;;;11.40;99.90;;;;;;5035427;28;20225;-83
2021/04/17 12:41:42;;;;;;;1.00;0.70;;;11.50;99.90;;;;;;5034976;28;20232;-81
2021/04/17 12:44:10;;;;;;;2.13;1.40;;;11.50;99.90;;;;;;5051687;28;20224;-82
2021/04/17 12:46:37;;;;;;;7.63;1.70;;;11.40;99.90;;;;;;5045785;28;20620;-81
2021/04/17 12:49:03;;;;;;;2.03;0.50;;;11.50;99.90;;;;;;5018465;28;20601;-84
2021/04/17 12:51:30;;;;;;;2.93;0.60;;;11.50;99.90;;;;;;5038092;28;20189;-84
2021/04/17 12:53:56;;;;;;;2.27;0.57;;;11.40;99.90;;;;;;5066997;28;20312;-84
2021/04/17 12:56:22;;;;;;;1.13;1.03;;;11.60;99.90;;;;;;5044554;28;21153;-82
2021/04/17 12:58:48;;;;;;;4.13;0.57;;;11.70;99.90;;;;;;5045462;28;20248;-84